Gene Autry, Oklahoma
Current Conditions -  °F | °C
As of 4:55 PM on Wednesday 26 Nov 2014 (Local Time) from KADM Reporting Station
Clear Clear  
Wind Chill: 13°   Ceiling: Unl
Heat Index: 13°   Visibility: 10mi
Dew Point:   Wind: 12mph
Humidity: 41%   Direction: 320°NW
Pressure: 30.25"   Gusts: 18mph
Location:  34.28°N, 97.04°W
Report Text: KADM 262255Z 32010G16KT 10SM SKC 13/00 A3025
Loading
Personal Weather Stations






























Interactive Weather Map New forecast layout! Learn more

10-Day Weather Forecast

Advertisements
Track Severe Weather on mobile